createdAt,value
2023-04-09T00:00:26.144Z,85.93
2023-04-09T00:05:27.779Z,85.84
2023-04-09T00:10:29.282Z,85.97
2023-04-09T00:15:31.873Z,86.13
2023-04-09T00:20:33.544Z,85.90
2023-04-09T00:25:35.195Z,86.20
2023-04-09T00:30:36.759Z,86.27
2023-04-09T00:35:38.278Z,86.40
2023-04-09T00:40:39.895Z,86.49
2023-04-09T00:45:41.691Z,86.62
2023-04-09T00:50:43.452Z,86.59
2023-04-09T00:55:45.924Z,86.73
2023-04-09T01:00:47.631Z,86.92
2023-04-09T01:06:00.515Z,87.06
2023-04-09T01:11:32.132Z,87.11
2023-04-09T01:16:36.946Z,87.17
2023-04-09T01:21:41.997Z,87.17
2023-04-09T01:27:04.987Z,87.25
2023-04-09T01:32:25.825Z,87.37
2023-04-09T01:37:27.697Z,87.48
2023-04-09T01:42:29.710Z,87.56
2023-04-09T01:47:31.972Z,87.90
2023-04-09T01:52:34.076Z,87.82
2023-04-09T01:57:35.578Z,87.90
2023-04-09T02:02:48.668Z,87.74
2023-04-09T02:07:56.930Z,87.97
2023-04-09T02:13:01.390Z,88.15
2023-04-09T02:18:02.963Z,88.34
2023-04-09T02:23:04.588Z,88.48
2023-04-09T02:28:06.072Z,88.53
2023-04-09T02:33:07.886Z,88.67
2023-04-09T02:38:14.456Z,88.69
2023-04-09T02:43:16.008Z,88.98
2023-04-09T02:48:17.466Z,89.19
2023-04-09T02:53:21.431Z,89.14
2023-04-09T02:58:22.979Z,89.31
2023-04-09T03:03:24.657Z,89.27
2023-04-09T03:08:26.417Z,89.37
2023-04-09T03:13:28.301Z,89.55
2023-04-09T03:18:29.814Z,89.51
2023-04-09T03:23:34.810Z,89.72
2023-04-09T03:28:36.621Z,89.71
2023-04-09T03:33:38.353Z,89.71
2023-04-09T03:38:39.973Z,89.71
2023-04-09T03:43:48.613Z,89.85
2023-04-09T03:48:55.520Z,89.96
2023-04-09T03:54:00.713Z,90.09
2023-04-09T03:59:02.548Z,90.05
2023-04-09T04:04:12.189Z,89.92
2023-04-09T04:09:27.549Z,90.31
2023-04-09T04:14:32.504Z,90.13
2023-04-09T04:19:40.761Z,90.20
2023-04-09T04:24:42.881Z,90.32
2023-04-09T04:29:44.560Z,90.14
2023-04-09T04:34:57.402Z,90.20
2023-04-09T04:40:02.412Z,90.08
2023-04-09T04:45:06.668Z,90.19
2023-04-09T04:50:27.148Z,90.22
2023-04-09T04:55:37.279Z,90.22
2023-04-09T05:00:39.235Z,90.30
2023-04-09T05:05:41.588Z,90.34
2023-04-09T05:10:44.560Z,90.40
2023-04-09T05:15:47.377Z,90.52
2023-04-09T05:20:48.967Z,90.57
2023-04-09T05:25:51.242Z,90.43
2023-04-09T05:31:01.008Z,90.68
2023-04-09T05:36:02.694Z,90.79
2023-04-09T05:41:04.290Z,91.07
2023-04-09T05:46:09.217Z,90.87
2023-04-09T05:51:11.044Z,90.80
2023-04-09T05:56:15.452Z,90.66
2023-04-09T06:01:25.006Z,90.54
2023-04-09T06:06:27.024Z,90.19
2023-04-09T06:11:28.489Z,89.61
2023-04-09T06:16:30.001Z,88.86
2023-04-09T06:21:33.196Z,88.50
2023-04-09T06:26:34.744Z,87.88
2023-04-09T06:31:36.361Z,87.21
2023-04-09T06:36:40.189Z,86.77
2023-04-09T06:41:41.744Z,86.55
2023-04-09T06:46:56.124Z,86.33
2023-04-09T06:51:57.978Z,86.11
2023-04-09T06:56:59.452Z,85.93
2023-04-09T07:02:01.149Z,85.58
2023-04-09T07:07:03.028Z,85.18
2023-04-09T07:12:04.556Z,85.08
2023-04-09T07:17:06.111Z,85.08
2023-04-09T07:22:07.565Z,82.66
2023-04-09T07:27:09.764Z,80.70
2023-04-09T07:32:11.489Z,79.33
2023-04-09T07:37:13.047Z,100.00
2023-04-09T07:42:14.611Z,100.00
2023-04-09T07:47:16.170Z,100.00
2023-04-09T07:52:17.711Z,100.00
2023-04-09T07:57:19.241Z,79.33
2023-04-09T08:02:21.207Z,72.75
2023-04-09T08:07:22.878Z,72.15
2023-04-09T08:12:24.385Z,72.13
2023-04-09T08:17:25.881Z,71.99
2023-04-09T08:22:27.388Z,71.48
2023-04-09T08:27:29.012Z,70.99
2023-04-09T08:32:30.576Z,100.00
2023-04-09T08:37:32.492Z,100.00
2023-04-09T08:42:35.661Z,100.00
2023-04-09T08:47:38.019Z,100.00
2023-04-09T08:52:40.430Z,100.00
2023-04-09T08:57:42.326Z,100.00
2023-04-09T09:03:04.465Z,100.00
2023-04-09T09:08:10.745Z,100.00
2023-04-09T09:13:26.213Z,100.00
2023-04-09T09:18:42.217Z,70.99
2023-04-09T09:23:44.415Z,100.00
2023-04-09T09:28:48.111Z,100.00
2023-04-09T09:33:51.103Z,100.00
2023-04-09T09:38:55.578Z,100.00
2023-04-09T09:43:57.653Z,100.00
2023-04-09T09:48:59.243Z,100.00
2023-04-09T09:54:02.238Z,100.00
2023-04-09T09:59:27.077Z,100.00
2023-04-09T10:04:29.635Z,100.00
2023-04-09T10:09:32.382Z,100.00
2023-04-09T10:14:35.794Z,100.00
2023-04-09T10:19:46.503Z,100.00
2023-04-09T10:24:48.332Z,100.00
2023-04-09T10:29:52.042Z,100.00
2023-04-09T10:34:58.390Z,100.00
2023-04-09T10:39:59.939Z,100.00
2023-04-09T10:45:11.456Z,100.00
2023-04-09T10:50:18.298Z,53.79
2023-04-09T10:55:49.893Z,57.36
2023-04-09T11:00:51.726Z,57.23
2023-04-09T11:06:01.592Z,100.00
2023-04-09T11:11:03.899Z,100.00
2023-04-09T11:16:07.009Z,100.00
2023-04-09T11:21:10.186Z,100.00
2023-04-09T11:26:11.705Z,100.00
2023-04-09T11:31:13.276Z,100.00
2023-04-09T11:36:14.916Z,100.00
2023-04-09T11:41:16.643Z,100.00
2023-04-09T11:46:18.435Z,100.00
2023-04-09T11:51:20.187Z,100.00
2023-04-09T11:56:21.694Z,100.00
2023-04-09T12:01:23.310Z,100.00
2023-04-09T12:06:25.661Z,100.00
2023-04-09T12:11:31.811Z,100.00
2023-04-09T12:16:36.305Z,100.00
2023-04-09T12:21:52.973Z,100.00
2023-04-09T12:26:54.463Z,100.00
2023-04-09T12:31:56.019Z,100.00
2023-04-09T12:36:57.532Z,100.00
2023-04-09T12:41:59.014Z,100.00
2023-04-09T12:47:00.704Z,100.00
2023-04-09T12:52:02.401Z,100.00
2023-04-09T12:57:03.887Z,100.00
2023-04-09T13:02:05.549Z,100.00
2023-04-09T13:07:07.369Z,100.00
2023-04-09T13:12:09.039Z,100.00
2023-04-09T13:17:10.865Z,100.00
2023-04-09T13:22:12.599Z,100.00
2023-04-09T13:27:14.417Z,100.00
2023-04-09T13:32:18.166Z,100.00
2023-04-09T13:37:19.649Z,100.00
2023-04-09T13:42:21.156Z,100.00
2023-04-09T13:47:23.767Z,100.00
2023-04-09T13:52:29.277Z,100.00
2023-04-09T13:57:31.207Z,100.00
2023-04-09T14:02:32.897Z,100.00
2023-04-09T14:07:34.609Z,100.00
2023-04-09T14:12:36.471Z,100.00
2023-04-09T14:17:38.124Z,100.00
2023-04-09T14:22:39.641Z,100.00
2023-04-09T14:27:41.189Z,100.00
2023-04-09T14:32:43.139Z,100.00
2023-04-09T14:37:44.788Z,100.00
2023-04-09T14:42:46.265Z,100.00
2023-04-09T14:47:47.853Z,100.00
2023-04-09T14:52:49.469Z,100.00
2023-04-09T14:57:50.930Z,100.00
2023-04-09T15:02:52.582Z,100.00
2023-04-09T15:07:55.375Z,100.00
2023-04-09T15:12:57.043Z,100.00
2023-04-09T15:18:05.353Z,100.00
2023-04-09T15:23:06.953Z,100.00
2023-04-09T15:28:08.433Z,100.00
2023-04-09T15:33:09.965Z,100.00
2023-04-09T15:38:11.766Z,100.00
2023-04-09T15:43:13.289Z,100.00
2023-04-09T15:48:14.808Z,100.00
2023-04-09T15:53:16.335Z,100.00
2023-04-09T15:58:17.878Z,100.00
2023-04-09T16:03:19.465Z,100.00
2023-04-09T16:08:20.938Z,100.00
2023-04-09T16:13:22.746Z,100.00
2023-04-09T16:18:25.684Z,100.00
2023-04-09T16:23:30.297Z,100.00
2023-04-09T16:28:32.366Z,100.00
2023-04-09T16:33:33.904Z,100.00
2023-04-09T16:38:35.466Z,100.00
2023-04-09T16:43:36.947Z,100.00
2023-04-09T16:48:41.637Z,100.00
2023-04-09T16:53:43.287Z,100.00
2023-04-09T16:58:46.456Z,100.00
2023-04-09T17:03:49.198Z,100.00
2023-04-09T17:08:50.889Z,100.00
2023-04-09T17:13:54.020Z,100.00
2023-04-09T17:18:55.874Z,100.00
2023-04-09T17:23:57.531Z,100.00
2023-04-09T17:28:59.002Z,100.00
2023-04-09T17:34:00.539Z,100.00
2023-04-09T17:39:02.965Z,100.00
2023-04-09T17:44:04.521Z,100.00
2023-04-09T17:49:06.259Z,100.00
2023-04-09T17:54:07.852Z,100.00
2023-04-09T17:59:09.349Z,100.00
2023-04-09T18:04:11.213Z,100.00
2023-04-09T18:09:13.403Z,100.00
2023-04-09T18:14:15.493Z,100.00
2023-04-09T18:19:17.028Z,100.00
2023-04-09T18:24:18.550Z,100.00
2023-04-09T18:29:20.178Z,100.00
2023-04-09T18:34:22.403Z,100.00
2023-04-09T18:39:24.326Z,100.00
2023-04-09T18:44:26.156Z,100.00
2023-04-09T18:49:27.632Z,100.00
2023-04-09T18:54:29.166Z,100.00
2023-04-09T18:59:33.294Z,100.00
2023-04-09T19:04:36.757Z,100.00
2023-04-09T19:09:38.603Z,100.00
2023-04-09T19:14:40.753Z,100.00
2023-04-09T19:19:42.688Z,100.00
2023-04-09T19:24:44.705Z,100.00
2023-04-09T19:29:46.920Z,100.00
2023-04-09T19:34:48.408Z,100.00
2023-04-09T19:39:49.878Z,100.00
2023-04-09T19:44:51.356Z,100.00
2023-04-09T19:49:55.676Z,100.00
2023-04-09T19:54:57.760Z,100.00
2023-04-09T19:59:59.229Z,100.00
2023-04-09T20:05:00.809Z,100.00
2023-04-09T20:10:02.792Z,100.00
2023-04-09T20:15:04.672Z,100.00
2023-04-09T20:20:06.691Z,100.00
2023-04-09T20:25:09.963Z,100.00
2023-04-09T20:30:11.740Z,100.00
2023-04-09T20:35:14.438Z,100.00
2023-04-09T20:40:16.359Z,100.00
2023-04-09T20:45:17.853Z,100.00
2023-04-09T20:50:19.537Z,100.00
2023-04-09T20:55:21.160Z,100.00
2023-04-09T21:00:22.880Z,100.00
2023-04-09T21:05:24.554Z,100.00
2023-04-09T21:10:26.050Z,100.00
2023-04-09T21:15:27.740Z,100.00
2023-04-09T21:20:29.211Z,100.00
2023-04-09T21:25:30.742Z,100.00
2023-04-09T21:30:33.898Z,100.00
2023-04-09T21:35:36.354Z,100.00
2023-04-09T21:40:37.943Z,100.00
2023-04-09T21:45:40.070Z,100.00
2023-04-09T21:50:41.631Z,100.00
2023-04-09T21:55:43.178Z,100.00
2023-04-09T22:00:44.691Z,100.00
2023-04-09T22:05:46.209Z,100.00
2023-04-09T22:10:47.738Z,100.00
2023-04-09T22:15:49.318Z,100.00
2023-04-09T22:20:50.799Z,100.00
2023-04-09T22:26:04.723Z,100.00
2023-04-09T22:31:06.409Z,100.00
2023-04-09T22:36:08.182Z,100.00
2023-04-09T22:41:09.574Z,100.00
2023-04-09T22:46:11.795Z,100.00
2023-04-09T22:51:13.839Z,100.00
2023-04-09T22:56:15.514Z,100.00
2023-04-09T23:01:21.823Z,100.00
2023-04-09T23:06:25.160Z,100.00
2023-04-09T23:11:27.181Z,100.00
2023-04-09T23:16:28.871Z,100.00
2023-04-09T23:21:31.626Z,100.00
2023-04-09T23:26:33.153Z,100.00
2023-04-09T23:31:34.627Z,100.00
2023-04-09T23:36:36.226Z,100.00
2023-04-09T23:41:37.909Z,100.00
2023-04-09T23:46:39.475Z,100.00
2023-04-09T23:51:41.053Z,100.00
2023-04-09T23:56:42.592Z,100.00
